Time;durP1;ratioP1;P1;durP2;ratioP2;P2;SDS_P1;SDS_P2;PMS_P1;PMS_P2;Temp;Humidity;BMP_temperature;BMP_pressure;BME280_temperature;BME280_humidity;BME280_pressure;Samples;Min_cycle;Max_cycle;Signal;HPM_P1;HPM_P2
2024/01/28 00:00:45;;;;;;;33.47;20.48;;;12.00;88.90;;;;;;7427789;19;19923;-83
2024/01/28 00:03:11;;;;;;;35.45;20.77;;;12.00;88.90;;;;;;7422406;19;19914;-82
2024/01/28 00:05:38;;;;;;;35.45;20.48;;;11.90;89.00;;;;;;7427686;19;19926;-82
2024/01/28 00:08:05;;;;;;;32.97;20.65;;;11.90;88.90;;;;;;7425621;19;19906;-81
2024/01/28 00:10:31;;;;;;;34.28;20.67;;;11.90;89.10;;;;;;7428084;19;20006;-82
2024/01/28 00:12:57;;;;;;;34.50;20.40;;;11.90;89.40;;;;;;7428966;19;19911;-83
2024/01/28 00:15:23;;;;;;;32.53;20.92;;;11.90;89.80;;;;;;7424568;19;19971;-82
2024/01/28 00:17:53;;;;;;;33.28;21.33;;;11.90;89.80;;;;;;7427427;19;19938;-82
2024/01/28 00:20:19;;;;;;;38.95;24.85;;;11.90;89.40;;;;;;7424159;19;19915;-83
2024/01/28 00:22:45;;;;;;;39.03;22.70;;;11.90;90.80;;;;;;7426032;19;19919;-84
2024/01/28 00:25:10;;;;;;;35.08;21.38;;;11.90;90.60;;;;;;7425330;19;19935;-81
2024/01/28 00:27:37;;;;;;;36.15;22.83;;;11.90;90.70;;;;;;7429136;19;19922;-83
2024/01/28 00:30:04;;;;;;;36.28;22.55;;;11.80;90.80;;;;;;7426167;19;20521;-82
2024/01/28 00:32:30;;;;;;;39.10;24.23;;;11.80;90.90;;;;;;7430774;19;20587;-82
2024/01/28 00:34:55;;;;;;;39.50;24.10;;;11.80;91.30;;;;;;7428777;19;19921;-81
2024/01/28 00:37:23;;;;;;;37.20;22.17;;;11.90;91.50;;;;;;7424735;19;19921;-82
2024/01/28 00:39:49;;;;;;;35.38;22.58;;;11.80;91.40;;;;;;7425459;19;20632;-83
2024/01/28 00:42:16;;;;;;;38.67;24.02;;;11.80;91.40;;;;;;7425580;19;19915;-82
2024/01/28 00:44:42;;;;;;;37.25;23.05;;;11.80;91.50;;;;;;7424534;19;19914;-83
2024/01/28 00:47:07;;;;;;;35.53;23.08;;;11.80;91.80;;;;;;7426071;19;19928;-82
2024/01/28 00:49:33;;;;;;;36.80;23.45;;;11.80;92.10;;;;;;7421900;19;19933;-80
2024/01/28 00:52:00;;;;;;;38.15;24.50;;;11.70;92.50;;;;;;7427804;19;19926;-85
2024/01/28 00:54:26;;;;;;;40.13;23.83;;;11.80;92.80;;;;;;7423751;19;19922;-82
2024/01/28 00:56:52;;;;;;;40.47;25.35;;;11.80;93.10;;;;;;7429404;19;20301;-84
2024/01/28 00:59:19;;;;;;;35.92;23.85;;;11.80;93.30;;;;;;7421283;19;19914;-83
2024/01/28 01:01:45;;;;;;;36.95;21.95;;;11.70;93.30;;;;;;7402246;19;19933;-83
2024/01/28 01:04:11;;;;;;;37.28;23.05;;;11.70;93.20;;;;;;7421218;19;19922;-82
2024/01/28 01:06:39;;;;;;;35.58;22.05;;;11.70;93.30;;;;;;7426821;19;19910;-82
2024/01/28 01:09:09;;;;;;;40.47;23.92;;;11.70;93.20;;;;;;7423748;19;19918;-82
2024/01/28 01:11:35;;;;;;;37.50;24.42;;;11.70;93.30;;;;;;7426681;19;19923;-84
2024/01/28 01:14:01;;;;;;;34.90;21.70;;;11.60;93.50;;;;;;7428288;19;19918;-83
2024/01/28 01:16:27;;;;;;;34.72;22.75;;;11.60;93.60;;;;;;7427282;19;19940;-83
2024/01/28 01:18:54;;;;;;;35.30;23.17;;;11.60;93.60;;;;;;7426970;19;19943;-84
2024/01/28 01:21:19;;;;;;;34.80;22.40;;;11.60;93.70;;;;;;7404099;19;19915;-82
2024/01/28 01:23:45;;;;;;;34.33;22.80;;;11.60;94.10;;;;;;7425602;19;19922;-84
2024/01/28 01:26:11;;;;;;;40.63;20.48;;;11.50;94.00;;;;;;7426954;19;19919;-83
2024/01/28 01:28:37;;;;;;;33.97;21.13;;;11.60;94.50;;;;;;7425634;19;20458;-81
2024/01/28 01:31:04;;;;;;;37.30;21.58;;;11.50;94.60;;;;;;7423369;19;19914;-81
2024/01/28 01:33:30;;;;;;;34.97;21.50;;;11.50;94.40;;;;;;7424198;19;19910;-81
2024/01/28 01:35:55;;;;;;;35.63;21.10;;;11.40;94.30;;;;;;7424109;19;19923;-82
2024/01/28 01:38:22;;;;;;;33.97;20.27;;;11.40;94.50;;;;;;7424650;19;19923;-84
2024/01/28 01:40:47;;;;;;;38.72;22.77;;;11.40;94.60;;;;;;7422924;19;19919;-83
2024/01/28 01:43:15;;;;;;;35.83;21.50;;;11.40;95.30;;;;;;7422067;19;19947;-84
2024/01/28 01:45:41;;;;;;;32.95;20.13;;;11.40;95.50;;;;;;7426194;19;19922;-83
2024/01/28 01:48:10;;;;;;;34.35;20.42;;;11.40;95.30;;;;;;7421928;19;19952;-82
2024/01/28 01:50:36;;;;;;;31.00;19.90;;;11.30;95.30;;;;;;7426204;19;19921;-81
2024/01/28 01:53:04;;;;;;;31.08;19.48;;;11.30;95.30;;;;;;7423595;19;20354;-82
2024/01/28 01:55:34;;;;;;;32.83;20.73;;;11.30;95.20;;;;;;7426696;19;19947;-82
2024/01/28 01:58:01;;;;;;;30.42;19.60;;;11.30;95.50;;;;;;7430859;19;19919;-82
2024/01/28 02:00:28;;;;;;;31.45;20.02;;;11.20;95.90;;;;;;7406223;19;19964;-84
2024/01/28 02:02:54;;;;;;;37.90;22.17;;;11.30;95.80;;;;;;7429567;19;19914;-82
2024/01/28 02:05:19;;;;;;;35.22;20.92;;;11.30;96.20;;;;;;7428664;19;19991;-81
2024/01/28 02:07:45;;;;;;;31.20;20.75;;;11.30;96.70;;;;;;7430629;19;19954;-82
2024/01/28 02:10:13;;;;;;;32.75;20.20;;;11.30;96.80;;;;;;7428771;19;19914;-81
2024/01/28 02:12:39;;;;;;;32.08;19.63;;;11.30;96.80;;;;;;7429349;19;19951;-83
2024/01/28 02:15:06;;;;;;;34.58;20.77;;;11.30;97.10;;;;;;7429415;19;19930;-82
2024/01/28 02:17:33;;;;;;;33.40;20.95;;;11.20;97.20;;;;;;7411412;19;19926;-82
2024/01/28 02:19:59;;;;;;;32.00;19.45;;;11.20;97.40;;;;;;7431733;19;20021;-82
2024/01/28 02:22:28;;;;;;;35.03;21.20;;;11.20;97.50;;;;;;7430126;19;19918;-84
2024/01/28 02:25:00;;;;;;;36.22;22.60;;;11.20;98.00;;;;;;7430256;19;19922;-83
2024/01/28 02:27:27;;;;;;;34.63;21.15;;;11.20;98.60;;;;;;7408467;19;19922;-81
2024/01/28 02:29:52;;;;;;;33.17;20.55;;;11.20;99.00;;;;;;7432987;19;19942;-81
2024/01/28 02:32:22;;;;;;;33.55;21.17;;;11.20;99.00;;;;;;7430931;19;19922;-81
2024/01/28 02:34:48;;;;;;;33.83;22.23;;;11.10;99.30;;;;;;7428810;19;19922;-82
2024/01/28 02:37:13;;;;;;;32.58;19.92;;;11.10;99.70;;;;;;7430635;19;19921;-82
2024/01/28 02:39:40;;;;;;;37.83;22.52;;;11.10;99.90;;;;;;7426535;19;20338;-82
2024/01/28 02:42:08;;;;;;;32.20;21.05;;;11.10;99.90;;;;;;7427523;19;19933;-82
2024/01/28 02:44:34;;;;;;;32.80;21.92;;;11.10;99.90;;;;;;7429691;19;19931;-83
2024/01/28 02:47:02;;;;;;;33.10;20.95;;;11.10;99.90;;;;;;7433597;19;19918;-82
2024/01/28 02:49:28;;;;;;;34.65;20.55;;;11.10;99.90;;;;;;7411428;19;20420;-83
2024/01/28 02:51:54;;;;;;;32.20;21.25;;;11.00;99.90;;;;;;7430789;19;19907;-83
2024/01/28 02:54:24;;;;;;;33.63;19.80;;;11.00;99.90;;;;;;7430062;19;19902;-83
2024/01/28 02:56:51;;;;;;;35.88;20.08;;;11.10;99.90;;;;;;7431605;19;19926;-83
2024/01/28 02:59:17;;;;;;;;;;;11.10;99.90;;;;;;7435707;19;19917;-83
2024/01/28 03:01:49;;;;;;;29.58;19.15;;;11.20;99.90;;;;;;7431289;19;19919;-82
2024/01/28 03:04:15;;;;;;;32.17;20.20;;;11.10;99.90;;;;;;7428812;19;19923;-86
2024/01/28 03:06:42;;;;;;;32.53;19.90;;;11.10;99.90;;;;;;7433491;19;20283;-81
2024/01/28 03:09:08;;;;;;;31.20;20.45;;;11.10;99.90;;;;;;7431020;19;19926;-83
2024/01/28 03:11:37;;;;;;;35.17;22.33;;;11.10;99.90;;;;;;7429843;19;19927;-82
2024/01/28 03:14:02;;;;;;;33.10;21.77;;;11.10;99.90;;;;;;7430143;19;19922;-83
2024/01/28 03:16:28;;;;;;;31.75;19.63;;;11.10;99.90;;;;;;7425930;19;19930;-83
2024/01/28 03:18:54;;;;;;;30.92;19.05;;;11.10;99.90;;;;;;7432824;19;19936;-83
2024/01/28 03:21:20;;;;;;;31.65;20.85;;;11.10;99.90;;;;;;7431033;19;19911;-82
2024/01/28 03:23:46;;;;;;;29.20;19.90;;;11.10;99.90;;;;;;7432544;19;19925;-83
2024/01/28 03:26:12;;;;;;;34.17;20.83;;;11.10;99.90;;;;;;7429247;19;19922;-81
2024/01/28 03:28:38;;;;;;;29.98;19.02;;;11.00;99.90;;;;;;7431359;19;19957;-83
2024/01/28 03:31:04;;;;;;;31.13;19.88;;;11.00;99.90;;;;;;7428740;19;19915;-81
2024/01/28 03:33:30;;;;;;;33.47;20.00;;;11.00;99.90;;;;;;7430048;19;19962;-82
2024/01/28 03:35:56;;;;;;;31.50;19.73;;;11.10;99.90;;;;;;7431019;19;19915;-80
2024/01/28 03:38:22;;;;;;;32.65;20.38;;;11.00;99.90;;;;;;7428955;19;19922;-82
2024/01/28 03:40:49;;;;;;;31.05;20.50;;;11.00;99.90;;;;;;7427926;19;19929;-81
2024/01/28 03:43:15;;;;;;;34.35;21.45;;;11.00;99.90;;;;;;7426516;19;19950;-82
2024/01/28 03:45:40;;;;;;;34.25;21.70;;;11.00;99.90;;;;;;7428042;19;19907;-81
2024/01/28 03:48:06;;;;;;;37.47;23.25;;;11.00;99.90;;;;;;7422723;19;19926;-82
2024/01/28 03:50:32;;;;;;;33.92;22.35;;;11.00;99.90;;;;;;7428301;19;20004;-83
2024/01/28 03:52:58;;;;;;;35.70;22.15;;;11.00;99.90;;;;;;7429332;19;20312;-82
2024/01/28 03:55:24;;;;;;;36.72;23.92;;;10.90;99.90;;;;;;7424452;19;19918;-83
2024/01/28 03:57:49;;;;;;;32.03;21.30;;;10.90;99.90;;;;;;7429526;19;19962;-83
2024/01/28 04:00:18;;;;;;;36.15;22.50;;;11.00;99.90;;;;;;7428010;19;19915;-82
2024/01/28 04:02:44;;;;;;;33.83;22.10;;;10.90;99.90;;;;;;7407214;19;20042;-82
2024/01/28 04:05:11;;;;;;;34.35;21.95;;;10.90;99.90;;;;;;7404820;19;19947;-81
2024/01/28 04:07:37;;;;;;;33.30;21.23;;;10.90;99.90;;;;;;7426612;19;19951;-84
2024/01/28 04:10:03;;;;;;;39.33;24.02;;;10.90;99.90;;;;;;7405209;19;19914;-83
2024/01/28 04:12:28;;;;;;;39.35;23.92;;;10.90;99.90;;;;;;7428976;19;19929;-81
2024/01/28 04:14:54;;;;;;;35.42;23.45;;;10.90;99.90;;;;;;7429547;19;19922;-81
2024/01/28 04:17:20;;;;;;;37.35;22.08;;;10.90;99.90;;;;;;7427534;19;19907;-82
2024/01/28 04:19:46;;;;;;;37.95;23.05;;;10.90;99.90;;;;;;7428870;19;19919;-83
2024/01/28 04:22:14;;;;;;;35.40;21.58;;;10.90;99.90;;;;;;7422578;19;19922;-81
2024/01/28 04:24:40;;;;;;;37.67;23.55;;;10.80;99.90;;;;;;7430272;19;20350;-81
2024/01/28 04:27:06;;;;;;;38.53;23.75;;;10.80;99.90;;;;;;7425002;19;19922;-84
2024/01/28 04:29:31;;;;;;;36.33;24.08;;;10.80;99.90;;;;;;7428693;19;19925;-83
2024/01/28 04:31:57;;;;;;;37.35;22.88;;;10.80;99.90;;;;;;7427123;19;20038;-82
2024/01/28 04:34:24;;;;;;;36.72;23.30;;;10.80;99.90;;;;;;7428597;19;19942;-81
2024/01/28 04:36:51;;;;;;;36.03;23.15;;;10.80;99.90;;;;;;7427084;19;19919;-82
2024/01/28 04:39:18;;;;;;;37.53;22.90;;;10.70;99.90;;;;;;7403471;19;19926;-82
2024/01/28 04:41:44;;;;;;;37.67;23.27;;;10.70;99.90;;;;;;7426448;19;19918;-81
2024/01/28 04:44:10;;;;;;;41.00;24.27;;;10.70;99.90;;;;;;7419059;19;19922;-82
2024/01/28 04:46:36;;;;;;;34.88;22.15;;;10.70;99.90;;;;;;7425688;19;19915;-81
2024/01/28 04:49:03;;;;;;;42.22;23.70;;;10.60;99.90;;;;;;7427759;19;20295;-82
2024/01/28 04:51:30;;;;;;;35.00;22.58;;;10.60;99.90;;;;;;7426539;19;19924;-83
2024/01/28 04:53:57;;;;;;;38.83;24.20;;;10.60;99.90;;;;;;7426054;19;19921;-81
2024/01/28 04:56:23;;;;;;;37.33;22.58;;;10.60;99.90;;;;;;7424171;19;19919;-82
2024/01/28 04:58:49;;;;;;;37.88;22.40;;;10.60;99.90;;;;;;7425972;19;19918;-82
2024/01/28 05:01:14;;;;;;;35.35;21.92;;;10.60;99.90;;;;;;7424959;19;19922;-82
2024/01/28 05:03:40;;;;;;;37.15;21.95;;;10.50;99.90;;;;;;7427675;19;19926;-81
2024/01/28 05:06:07;;;;;;;32.95;20.17;;;10.50;99.90;;;;;;7424369;19;19907;-82
2024/01/28 05:08:34;;;;;;;33.25;21.10;;;10.50;99.90;;;;;;7427386;19;19929;-82
2024/01/28 05:10:59;;;;;;;36.45;20.98;;;10.50;99.90;;;;;;7426549;19;19907;-82
2024/01/28 05:13:29;;;;;;;32.17;21.15;;;10.40;99.90;;;;;;7422805;19;19970;-81
2024/01/28 05:15:56;;;;;;;35.42;21.58;;;10.40;99.90;;;;;;7429770;19;19922;-82
2024/01/28 05:18:22;;;;;;;38.75;22.33;;;10.50;99.90;;;;;;7424111;19;19911;-84
2024/01/28 05:20:48;;;;;;;34.42;20.10;;;10.50;99.90;;;;;;7427786;19;19915;-82
2024/01/28 05:23:14;;;;;;;37.22;21.58;;;10.50;99.90;;;;;;7405971;19;19923;-82
2024/01/28 05:25:40;;;;;;;36.33;21.33;;;10.50;99.90;;;;;;7428867;19;19915;-82
2024/01/28 05:28:07;;;;;;;34.75;20.77;;;10.50;99.90;;;;;;7427571;19;19948;-81
2024/01/28 05:30:33;;;;;;;34.30;20.10;;;10.50;99.90;;;;;;7423255;19;19921;-82
2024/01/28 05:32:59;;;;;;;33.72;20.00;;;10.50;99.90;;;;;;7426734;19;19918;-82
2024/01/28 05:35:25;;;;;;;37.92;21.20;;;10.50;99.90;;;;;;7423286;19;19926;-82
2024/01/28 05:37:51;;;;;;;34.83;20.88;;;10.50;99.90;;;;;;7428711;19;19933;-83
2024/01/28 05:40:18;;;;;;;35.13;19.88;;;10.50;99.90;;;;;;7426116;19;19922;-86
2024/01/28 05:42:44;;;;;;;33.05;19.17;;;10.30;99.90;;;;;;7426938;19;19922;-82
2024/01/28 05:45:10;;;;;;;36.08;20.60;;;10.40;99.90;;;;;;7426368;19;19922;-82
2024/01/28 05:47:35;;;;;;;34.38;19.48;;;10.40;99.90;;;;;;7428259;19;20038;-82
2024/01/28 05:50:02;;;;;;;33.83;19.08;;;10.40;99.90;;;;;;7424288;19;19903;-82
2024/01/28 05:52:28;;;;;;;35.92;20.02;;;10.40;99.90;;;;;;7425104;19;19942;-81
2024/01/28 05:54:53;;;;;;;37.55;21.10;;;10.40;99.90;;;;;;7425855;19;19942;-82
2024/01/28 05:57:20;;;;;;;37.78;18.90;;;10.40;99.90;;;;;;7424320;19;19925;-82
2024/01/28 05:59:46;;;;;;;35.40;18.52;;;10.40;99.90;;;;;;7404573;19;20196;-81
2024/01/28 06:02:12;;;;;;;34.80;18.30;;;10.40;99.90;;;;;;7422206;19;19976;-82
2024/01/28 06:04:38;;;;;;;35.92;18.17;;;10.30;99.90;;;;;;7424651;19;19938;-82
2024/01/28 06:07:04;;;;;;;35.15;18.33;;;10.40;99.90;;;;;;7420653;19;19922;-82
2024/01/28 06:09:30;;;;;;;35.97;19.02;;;10.40;99.90;;;;;;7425281;19;19927;-83
2024/01/28 06:11:55;;;;;;;32.88;17.30;;;10.40;99.90;;;;;;7425196;19;19923;-82
2024/01/28 06:14:24;;;;;;;33.35;18.77;;;10.40;99.90;;;;;;7420405;19;19906;-83
2024/01/28 06:16:49;;;;;;;40.45;20.52;;;10.50;99.90;;;;;;7423378;19;19942;-83
2024/01/28 06:19:16;;;;;;;39.95;19.88;;;10.50;99.90;;;;;;7420823;19;19910;-83
2024/01/28 06:21:42;;;;;;;39.95;19.67;;;10.50;99.90;;;;;;7425886;19;19927;-83
2024/01/28 06:24:09;;;;;;;41.13;20.40;;;10.60;99.90;;;;;;7421778;19;20366;-82
2024/01/28 06:26:37;;;;;;;39.75;20.67;;;10.60;99.90;;;;;;7425123;19;19942;-83
2024/01/28 06:29:03;;;;;;;37.40;21.20;;;10.60;99.90;;;;;;7420851;19;19925;-82
2024/01/28 06:31:29;;;;;;;38.50;20.67;;;10.60;99.90;;;;;;7426209;19;19929;-82
2024/01/28 06:33:54;;;;;;;34.45;19.58;;;10.50;99.90;;;;;;7423717;19;19922;-82
2024/01/28 06:36:21;;;;;;;36.72;19.88;;;10.40;99.90;;;;;;7421765;19;19907;-82
2024/01/28 06:38:47;;;;;;;35.38;20.88;;;10.40;99.90;;;;;;7422273;19;19930;-82
2024/01/28 06:41:16;;;;;;;40.25;21.20;;;10.30;99.90;;;;;;7422542;19;19915;-81
2024/01/28 06:43:43;;;;;;;37.10;21.65;;;10.20;99.90;;;;;;7425058;19;19910;-82
2024/01/28 06:46:11;;;;;;;37.03;22.23;;;10.10;99.90;;;;;;7426227;19;19914;-83
2024/01/28 06:48:37;;;;;;;44.35;22.23;;;10.10;99.90;;;;;;7429333;19;19946;-80
2024/01/28 06:51:06;;;;;;;41.15;21.90;;;10.00;99.90;;;;;;7429032;19;19925;-82
2024/01/28 06:53:32;;;;;;;40.75;23.13;;;10.00;99.90;;;;;;7431636;19;20027;-80
2024/01/28 06:55:58;;;;;;;39.30;21.15;;;9.90;99.90;;;;;;7433541;19;19906;-82
2024/01/28 06:58:24;;;;;;;41.88;22.90;;;9.90;99.90;;;;;;7428903;19;19974;-82
2024/01/28 07:00:53;;;;;;;39.97;21.92;;;9.90;99.90;;;;;;7429165;19;20302;-82
2024/01/28 07:03:19;;;;;;;42.78;22.25;;;9.80;99.90;;;;;;7427600;19;19925;-83
2024/01/28 07:05:46;;;;;;;36.72;20.10;;;9.90;99.90;;;;;;7429782;19;19974;-82
2024/01/28 07:08:11;;;;;;;41.75;20.30;;;10.00;99.90;;;;;;7429103;19;19910;-82
2024/01/28 07:10:37;;;;;;;43.17;21.38;;;10.10;99.90;;;;;;7430329;19;20569;-82
2024/01/28 07:13:03;;;;;;;44.70;21.88;;;10.20;99.90;;;;;;7425161;19;19951;-83
2024/01/28 07:15:30;;;;;;;43.22;21.70;;;10.30;99.90;;;;;;7430590;19;19921;-84
2024/01/28 07:17:56;;;;;;;44.40;21.80;;;10.40;99.90;;;;;;7429593;19;19922;-81
2024/01/28 07:20:22;;;;;;;44.42;21.52;;;10.50;99.90;;;;;;7427842;19;20561;-83
2024/01/28 07:22:48;;;;;;;41.15;21.38;;;10.70;99.90;;;;;;7427891;19;19959;-83
2024/01/28 07:25:14;;;;;;;41.50;20.92;;;10.70;99.90;;;;;;7427171;19;19918;-83
2024/01/28 07:27:40;;;;;;;42.70;22.08;;;10.80;99.90;;;;;;7430377;19;19919;-83
2024/01/28 07:30:07;;;;;;;41.72;20.45;;;10.90;99.90;;;;;;7424914;19;19963;-82
2024/01/28 07:32:32;;;;;;;41.95;21.20;;;10.90;99.90;;;;;;7407517;19;20370;-84
2024/01/28 07:34:58;;;;;;;39.53;19.83;;;11.00;99.90;;;;;;7424674;19;19946;-82
2024/01/28 07:37:24;;;;;;;42.05;19.95;;;11.10;99.90;;;;;;7425656;19;19921;-83
2024/01/28 07:39:50;;;;;;;39.20;18.85;;;11.10;99.90;;;;;;7425546;19;19918;-82
2024/01/28 07:42:16;;;;;;;39.25;18.15;;;11.20;99.90;;;;;;7427137;19;19923;-83
2024/01/28 07:44:41;;;;;;;40.10;18.15;;;11.20;99.90;;;;;;7426279;19;19923;-83
2024/01/28 07:47:07;;;;;;;36.22;17.13;;;11.30;99.90;;;;;;7408965;19;19990;-83
2024/01/28 07:49:33;;;;;;;37.70;17.92;;;11.40;99.90;;;;;;7427057;19;19923;-84
2024/01/28 07:51:59;;;;;;;41.42;18.40;;;11.40;99.90;;;;;;7433035;19;19927;-82
2024/01/28 07:54:25;;;;;;;37.63;17.27;;;11.50;99.90;;;;;;7425201;19;19930;-82
2024/01/28 07:56:53;;;;;;;34.53;17.50;;;11.50;99.90;;;;;;7428491;19;20853;-83
2024/01/28 07:59:19;;;;;;;;;;;11.50;99.90;;;;;;7429502;19;19911;-84
2024/01/28 08:01:45;;;;;;;35.00;16.52;;;11.70;99.90;;;;;;7429857;19;19923;-83
2024/01/28 08:04:11;;;;;;;31.17;17.35;;;11.70;99.90;;;;;;7423032;19;19914;-83
2024/01/28 08:06:37;;;;;;;32.30;17.33;;;11.80;99.90;;;;;;7429260;19;19919;-83
2024/01/28 08:09:04;;;;;;;31.27;16.70;;;11.80;99.90;;;;;;7404569;19;19926;-82
2024/01/28 08:11:32;;;;;;;32.50;16.30;;;11.80;99.90;;;;;;7426109;19;19927;-84
2024/01/28 08:13:59;;;;;;;28.13;15.73;;;12.00;99.90;;;;;;7425983;19;19911;-85
2024/01/28 08:16:31;;;;;;;27.70;15.77;;;12.00;99.90;;;;;;7422864;19;19925;-86
2024/01/28 08:18:57;;;;;;;28.35;15.55;;;12.00;99.90;;;;;;7422991;19;19925;-85
2024/01/28 08:21:23;;;;;;;28.48;15.25;;;12.10;99.90;;;;;;7424087;19;20278;-84
2024/01/28 08:23:48;;;;;;;23.95;13.80;;;12.10;99.90;;;;;;7423392;19;19926;-84
2024/01/28 08:26:15;;;;;;;24.92;14.23;;;12.20;99.90;;;;;;7424364;19;19944;-83
2024/01/28 08:28:41;;;;;;;22.40;12.98;;;12.30;99.90;;;;;;7427090;19;19918;-83
2024/01/28 08:31:07;;;;;;;21.17;13.45;;;12.30;99.90;;;;;;7426739;19;19938;-85
2024/01/28 08:33:35;;;;;;;21.88;14.40;;;12.30;99.90;;;;;;7426301;19;20002;-85
2024/01/28 08:36:01;;;;;;;21.73;13.70;;;12.30;99.90;;;;;;7426900;19;19914;-87
2024/01/28 08:38:29;;;;;;;20.42;11.80;;;12.40;99.90;;;;;;7424215;19;19943;-84
2024/01/28 08:40:56;;;;;;;20.60;13.07;;;12.40;99.90;;;;;;7426966;19;19922;-84
2024/01/28 08:43:22;;;;;;;20.75;12.38;;;12.50;99.90;;;;;;7424210;19;19982;-84
2024/01/28 08:45:47;;;;;;;19.60;12.27;;;12.50;99.90;;;;;;7406980;19;19927;-82
2024/01/28 08:48:13;;;;;;;19.83;12.40;;;12.60;99.90;;;;;;7432844;19;19925;-81
2024/01/28 08:50:39;;;;;;;21.17;11.88;;;12.70;99.90;;;;;;7421644;19;19918;-83
2024/01/28 08:53:07;;;;;;;17.33;11.65;;;12.80;99.90;;;;;;7423707;19;20307;-81
2024/01/28 08:55:33;;;;;;;19.27;11.77;;;12.70;99.90;;;;;;7420348;19;19925;-82
2024/01/28 08:58:34;;;;;;;17.60;11.65;;;12.80;99.90;;;;;;7423294;19;20274;-82
2024/01/28 09:01:03;;;;;;;19.33;11.88;;;12.80;99.90;;;;;;7375364;19;19926;-81
2024/01/28 09:03:29;;;;;;;20.60;12.10;;;12.90;99.90;;;;;;7338201;19;19970;-82
2024/01/28 09:06:00;;;;;;;16.08;11.38;;;12.90;99.90;;;;;;7417087;19;20367;-82
2024/01/28 09:08:30;;;;;;;17.35;11.68;;;13.00;99.80;;;;;;7399305;19;19941;-83
2024/01/28 09:10:56;;;;;;;21.70;12.20;;;13.10;99.50;;;;;;7426820;19;19926;-85
2024/01/28 09:13:23;;;;;;;17.40;11.63;;;13.20;99.20;;;;;;7419503;19;19942;-83
2024/01/28 09:15:49;;;;;;;16.80;11.15;;;13.20;98.00;;;;;;7400023;19;19942;-81
2024/01/28 09:18:15;;;;;;;16.77;10.65;;;13.20;97.80;;;;;;7425145;19;19915;-80
2024/01/28 09:20:41;;;;;;;16.58;11.32;;;13.30;97.50;;;;;;7425025;19;19940;-81
2024/01/28 09:23:07;;;;;;;17.55;10.80;;;13.40;96.90;;;;;;7425352;19;19915;-82
2024/01/28 09:25:33;;;;;;;18.02;10.50;;;13.50;96.20;;;;;;7425152;19;19914;-82
2024/01/28 09:28:00;;;;;;;18.58;11.30;;;13.60;95.10;;;;;;7423835;19;19914;-80
2024/01/28 09:30:27;;;;;;;16.85;10.07;;;13.60;95.00;;;;;;7419347;19;21019;-83
2024/01/28 09:32:54;;;;;;;15.93;10.20;;;13.70;94.80;;;;;;7404113;19;19922;-82
2024/01/28 09:35:25;;;;;;;21.05;10.90;;;13.70;94.50;;;;;;7421270;19;19919;-82
2024/01/28 09:37:52;;;;;;;17.83;11.40;;;13.60;93.60;;;;;;7423887;19;19921;-81
2024/01/28 09:40:18;;;;;;;17.95;10.50;;;13.70;93.80;;;;;;7419913;19;19939;-82
2024/01/28 09:42:53;;;;;;;18.50;9.73;;;13.70;93.10;;;;;;7413113;19;19957;-81
2024/01/28 09:45:19;;;;;;;14.30;8.65;;;13.70;92.80;;;;;;7422196;19;19929;-82
2024/01/28 09:47:46;;;;;;;13.30;8.45;;;13.80;93.30;;;;;;7425300;19;19922;-82
2024/01/28 09:50:11;;;;;;;;;;;13.80;92.90;;;;;;7425605;19;19943;-81
2024/01/28 09:52:39;;;;;;;15.90;9.75;;;13.80;92.10;;;;;;7424603;19;19922;-81
2024/01/28 09:55:05;;;;;;;15.13;9.90;;;13.90;92.30;;;;;;7397076;19;19926;-82
2024/01/28 09:57:37;;;;;;;16.58;10.32;;;14.00;91.60;;;;;;7422314;19;19914;-81
2024/01/28 10:00:07;;;;;;;16.73;10.60;;;14.00;91.50;;;;;;7412214;19;19918;-82
2024/01/28 10:02:36;;;;;;;17.77;10.43;;;14.00;91.70;;;;;;7380331;19;19919;-82
2024/01/28 10:05:03;;;;;;;19.55;10.57;;;14.00;90.90;;;;;;7422543;19;19928;-82
2024/01/28 10:07:29;;;;;;;;;;;14.00;91.60;;;;;;7427941;19;19926;-82
2024/01/28 10:09:55;;;;;;;16.48;9.05;;;14.00;91.00;;;;;;7425135;19;19919;-81
2024/01/28 10:12:21;;;;;;;15.57;9.35;;;14.10;90.80;;;;;;7422307;19;19910;-82
2024/01/28 10:14:54;;;;;;;15.65;9.02;;;14.20;91.10;;;;;;7427031;19;19918;-82
2024/01/28 10:17:23;;;;;;;15.30;9.93;;;14.20;90.50;;;;;;7427270;19;19911;-82
2024/01/28 10:19:52;;;;;;;14.48;9.38;;;14.20;90.20;;;;;;7430723;19;19915;-81
2024/01/28 10:22:18;;;;;;;14.07;8.52;;;14.30;89.70;;;;;;7430443;19;19918;-82
2024/01/28 10:28:29;;;;;;;17.08;9.10;;;14.40;88.30;;;;;;7410825;19;19952;-81
2024/01/28 10:30:56;;;;;;;13.52;8.98;;;14.50;88.90;;;;;;7426396;19;19926;-81
2024/01/28 10:33:21;;;;;;;18.38;9.60;;;14.50;87.90;;;;;;7423993;19;19922;-82
2024/01/28 10:35:48;;;;;;;15.10;8.82;;;14.50;86.50;;;;;;7434687;19;19911;-82
2024/01/28 10:38:19;;;;;;;11.80;8.38;;;14.60;86.00;;;;;;7428161;19;19918;-81
2024/01/28 10:40:47;;;;;;;12.77;7.53;;;14.70;85.20;;;;;;7431192;19;19919;-81
2024/01/28 10:43:19;;;;;;;13.55;7.82;;;14.80;84.40;;;;;;7425858;19;19923;-81
2024/01/28 10:45:51;;;;;;;12.23;7.72;;;14.90;82.70;;;;;;7430704;19;20346;-80
2024/01/28 10:48:18;;;;;;;16.00;8.40;;;15.00;81.20;;;;;;7405873;19;19929;-82
2024/01/28 10:50:44;;;;;;;17.23;8.75;;;15.20;78.60;;;;;;7427952;19;20292;-82
2024/01/28 10:53:29;;;;;;;12.85;7.88;;;15.30;78.90;;;;;;7407221;19;19948;-82
2024/01/28 10:55:55;;;;;;;12.65;8.10;;;15.50;76.10;;;;;;7425926;19;19906;-81
2024/01/28 10:58:21;;;;;;;14.00;7.93;;;15.50;74.60;;;;;;7425193;19;19926;-82
2024/01/28 11:00:47;;;;;;;13.82;7.90;;;15.60;74.70;;;;;;7428159;19;19941;-83
2024/01/28 11:03:15;;;;;;;14.27;7.40;;;15.80;73.80;;;;;;7430659;19;20433;-82
2024/01/28 11:05:43;;;;;;;9.43;7.03;;;16.00;70.70;;;;;;7409389;19;19946;-82
2024/01/28 11:08:09;;;;;;;9.73;6.63;;;16.10;68.60;;;;;;7429193;19;19943;-80
2024/01/28 11:10:34;;;;;;;10.93;6.80;;;16.10;66.40;;;;;;7425030;19;19919;-80
2024/01/28 11:13:07;;;;;;;11.30;7.35;;;16.10;66.50;;;;;;7407008;19;19918;-82
2024/01/28 11:15:33;;;;;;;;;;;16.20;66.70;;;;;;7403021;19;19919;-82
2024/01/28 11:18:01;;;;;;;10.82;7.35;;;16.20;66.80;;;;;;7428261;19;19911;-82
2024/01/28 11:20:34;;;;;;;12.93;8.88;;;16.30;65.70;;;;;;7417483;19;20350;-80
2024/01/28 11:23:00;;;;;;;11.75;7.95;;;16.60;64.40;;;;;;7430545;19;19914;-84
2024/01/28 11:25:30;;;;;;;12.40;8.02;;;17.00;61.30;;;;;;7425151;19;19942;-81
2024/01/28 11:28:06;;;;;;;12.18;7.38;;;18.20;56.80;;;;;;7429291;19;19926;-83
2024/01/28 11:30:52;;;;;;;11.63;6.72;;;19.00;48.60;;;;;;7429600;19;19918;-82
2024/01/28 11:33:38;;;;;;;9.73;6.57;;;19.80;44.30;;;;;;7406520;19;19923;-81
2024/01/28 11:36:08;;;;;;;10.35;7.03;;;20.00;41.40;;;;;;7384437;19;19914;-82
2024/01/28 11:38:41;;;;;;;9.32;7.10;;;20.20;37.20;;;;;;7433126;19;19915;-81
2024/01/28 11:41:10;;;;;;;9.88;6.63;;;19.70;39.60;;;;;;7422465;19;19943;-82
2024/01/28 11:43:36;;;;;;;8.88;6.30;;;19.50;39.50;;;;;;7427677;19;19922;-81
2024/01/28 11:46:03;;;;;;;10.27;5.70;;;20.90;36.50;;;;;;7424989;19;19907;-80
2024/01/28 11:48:31;;;;;;;10.15;6.30;;;20.70;34.60;;;;;;7404104;19;19935;-81
2024/01/28 11:50:58;;;;;;;10.35;6.93;;;21.40;32.40;;;;;;7428142;19;19925;-81
2024/01/28 11:53:25;;;;;;;11.23;6.88;;;22.30;29.50;;;;;;7400680;19;19916;-80
2024/01/28 11:55:50;;;;;;;10.70;6.90;;;22.10;27.00;;;;;;7425234;19;19923;-81
2024/01/28 11:58:18;;;;;;;9.13;6.88;;;21.60;28.60;;;;;;7425999;19;19925;-80
2024/01/28 12:00:44;;;;;;;9.82;6.13;;;21.70;28.10;;;;;;7424423;19;19930;-81
2024/01/28 12:03:10;;;;;;;9.73;5.95;;;22.40;27.50;;;;;;7425273;19;19942;-81
2024/01/28 12:05:36;;;;;;;9.27;5.60;;;22.60;26.00;;;;;;7426873;19;19945;-81
2024/01/28 12:08:03;;;;;;;9.68;5.65;;;22.70;25.10;;;;;;7423196;19;19947;-82
2024/01/28 12:10:29;;;;;;;9.32;6.47;;;22.70;24.80;;;;;;7427149;19;19926;-82
2024/01/28 12:12:56;;;;;;;10.20;6.30;;;23.00;24.00;;;;;;7428127;19;19918;-82
2024/01/28 12:15:23;;;;;;;9.80;6.07;;;22.70;24.00;;;;;;7426464;19;19923;-82
2024/01/28 12:17:51;;;;;;;8.85;6.13;;;23.00;23.70;;;;;;7428558;19;19939;-81
2024/01/28 12:20:22;;;;;;;11.48;6.78;;;22.90;23.40;;;;;;7422344;19;20026;-83
2024/01/28 12:22:48;;;;;;;10.00;7.13;;;22.50;24.10;;;;;;7400822;19;19918;-84
2024/01/28 12:25:19;;;;;;;11.88;7.80;;;22.00;25.40;;;;;;7423295;19;19929;-82
2024/01/28 12:27:45;;;;;;;11.07;8.00;;;22.10;25.60;;;;;;7424716;19;19925;-82
2024/01/28 12:30:14;;;;;;;12.18;8.00;;;22.00;25.00;;;;;;7422107;19;19907;-80
2024/01/28 12:32:44;;;;;;;11.10;7.80;;;22.30;25.50;;;;;;7425395;19;19922;-81